Latest Coastal Weather Observations for Larapuna (Eddystone Point)

IDT60701

Issued at 5:51 pm EST Saturday 1 August 2015 (issued every 10 minutes, with the page automatically refreshed every 10 minutes)

About coastal observations | Map of coastal stations | Coastal observations for TAS | Marine services | Other Formats
Station Details ID: 092045 Name: LARAPUNA (EDDYSTONE POINT) Lat: -40.99 Lon: 148.35 Height: 19.7 m
Data from the previous 72 hours. | See also: Recent months at Larapuna (Eddystone Point)
Date/Time
EST
Temp

°C
Wind Pressure Rain
since 9am
mm
Weather Cloud Vis
km
Sea
Height
m
Swell
Dir
 
Speed
knots
Gust
knots
hPa Trend Height
m
Period
s
Dir
01/05:30pm 7.7 W 14 19 1008.9 - 0.0 - - - - - - -
01/05:00pm 8.1 W 15 23 1008.3 - 0.0 - - - - - - -
01/04:55pm 8.0 W 16 26 1008.2 - 0.0 - - - - - - -
01/04:30pm 8.5 WNW 18 25 1007.9 - 0.0 - - - - - - -
01/04:00pm 9.2 WNW 16 25 1008.0 - 0.0 - - - - - - -
01/03:40pm 10.2 W 16 29 1007.8 - 0.0 - - - - - - -
01/03:30pm 10.4 WNW 16 22 1007.8 - 0.0 - - - - - - -
01/03:00pm 10.5 W 18 29 1007.5 - 0.0 - - - - - - -
01/02:30pm 11.1 W 20 30 1007.2 - 0.0 - - - - - - -
01/02:00pm 11.4 W 20 32 1006.8 - 0.0 - - - - - - -
01/01:40pm 11.2 W 20 30 1006.5 - 0.0 - - - - - - -
01/01:30pm 11.6 W 17 24 1006.5 - 0.0 - - - - - - -
01/01:00pm 11.6 W 19 29 1005.9 - 0.0 - - - - - - -
01/12:34pm 11.3 W 21 31 1005.8 - 0.0 - - - - - - -
01/12:30pm 11.1 W 23 31 1005.7 - 0.0 - - - - - - -
01/12:04pm 11.1 W 16 26 1005.6 - 0.0 - - - - - - -
01/12:00pm 11.1 W 16 25 1005.5 - 0.0 - - - - - - -
01/11:45am 11.2 W 20 30 1005.5 - 0.0 - - - - - - -
01/11:30am 10.9 WNW 19 28 1005.3 - 0.0 - - - - - - -
01/11:00am 11.2 WNW 18 28 1004.9 - 0.0 - - - - - - -
01/10:31am 10.4 W 23 36 1004.2 - 0.0 - - - - - - -
01/10:30am 10.4 W 23 32 1004.2 - 0.0 - - - - - - -
01/10:00am 10.2 WNW 22 34 1003.6 - 0.0 - - - - - - -
01/09:38am 9.6 WNW 20 31 1003.0 - 0.0 - - - - - - -
01/09:30am 9.3 WNW 21 29 1002.9 - 0.0 - - - - - - -
01/09:00am 8.7 WNW 20 30 1002.4 - 8.0 Recent precip. - - - - - -
01/08:45am 8.7 WNW 20 31 1002.5 - 8.0 - - - - - - -
01/08:30am 8.6 WNW 19 27 1002.1 - 8.0 - - - - - - -
01/08:02am 9.6 NW 21 30 1001.9 - 7.8 - - - - - - -
01/08:00am 9.8 NW 22 31 1002.0 - 7.8 - - - - - - -
01/07:36am 10.1 NNW 23 34 1001.6 - 6.6 - - - - - - -
01/07:30am 10.1 NNW 24 32 1001.6 - 6.6 - - - - - - -
01/07:00am 10.1 NNW 27 37 1001.6 - 5.2 - - - - - - -
01/06:33am 9.8 NNW 24 34 1001.8 - 4.4 - - - - - - -
01/06:30am 9.8 NNW 25 34 1001.9 - 4.4 - - - - - - -
01/06:17am 9.8 NNW 22 33 1001.8 - 4.2 - - - - - - -
01/06:00am 9.6 NNW 23 31 1002.0 - 3.6 Rain - - - - - -
01/05:30am 9.5 NNW 24 31 1002.5 - 2.6 - - - - - - -
01/05:03am 9.7 NNW 23 33 1002.7 - 2.0 - - - - - - -
01/05:00am 9.8 NNW 23 31 1002.7 - 1.8 - - - - - - -
01/04:34am 9.4 NNW 24 34 1002.9 - 1.0 - - - - - - -
01/04:30am 9.5 NNW 25 34 1003.0 - 0.8 - - - - - - -
01/04:04am 9.5 NW 29 39 1003.1 - 0.2 - - - - - - -
01/04:00am 9.6 NW 31 39 1003.0 - 0.0 - - - - - - -
01/03:30am 10.8 NNW 31 42 1003.4 - 0.0 - - - - - - -
01/03:00am 10.8 NNW 29 39 1004.8 - 0.0 - - - - - - -
01/02:30am 10.8 NNW 26 37 1005.5 - 0.0 - - - - - - -
01/02:00am 10.4 NNW 30 40 1006.3 - 0.0 - - - - - - -
01/01:40am 10.3 NNW 29 39 1006.9 - 0.0 - - - - - - -
01/01:30am 10.2 NNW 29 38 1007.2 - 0.0 - - - - - - -
01/01:00am 10.3 NNW 29 39 1008.3 - 0.0 - - - - - - -
01/12:56am 10.0 NNW 28 39 1008.3 - 0.0 - - - - - - -
01/12:30am 10.1 NNW 26 35 1008.8 - 0.0 - - - - - - -
01/12:29am 10.1 NNW 25 35 1008.9 - 0.0 - - - - - - -
01/12:00am 10.3 NNW 21 29 1009.6 - 0.0 - - - - - - -
 
Date/Time
EST
Temp

°C
Wind Pressure Rain
since 9am
mm
Weather Cloud Vis
km
Sea
Height
m
Swell
Dir
 
Speed
knots
Gust
knots
hPa Trend Height
m
Period
s
Dir
31/11:51pm 10.5 NNW 22 32 1009.8 - 0.0 - - - - - - -
31/11:30pm 10.4 NNW 23 30 1010.2 - 0.0 - - - - - - -
31/11:00pm 10.0 NNW 20 28 1010.7 - 0.0 - - - - - - -
31/10:30pm 10.0 NNW 22 29 1011.0 - 0.0 - - - - - - -
31/10:17pm 10.0 NNW 21 31 1011.3 - 0.0 - - - - - - -
31/10:00pm 10.1 NNW 20 28 1011.6 - 0.0 - - - - - - -
31/09:30pm 10.2 NNW 21 28 1012.2 - 0.0 - - - - - - -
31/09:08pm 10.0 NNW 19 29 1012.3 - 0.0 - - - - - - -
31/09:00pm 9.8 NNW 16 23 1012.4 - 0.0 - - - - - - -
31/08:30pm 9.1 NW 15 21 1013.0 - 0.0 - - - - - - -
31/08:00pm 8.6 NW 19 24 1013.1 - 0.0 - - - - - - -
31/07:30pm 8.7 NW 20 26 1013.0 - 0.0 - - - - - - -
31/07:00pm 8.7 NW 17 24 1013.3 - 0.0 - - - - - - -
31/06:30pm 8.7 NW 20 25 1013.2 - 0.0 - - - - - - -
31/06:00pm 8.5 NW 14 19 1013.4 - 0.0 - - - - - - -
31/05:30pm 8.6 NW 12 16 1013.3 - 0.0 - - - - - - -
31/05:00pm 9.1 NW 15 19 1013.4 - 0.0 - - - - - - -
31/04:30pm 9.7 NW 15 21 1013.5 - 0.0 - - - - - - -
31/04:00pm 10.2 NW 13 20 1014.0 - 0.0 - - - - - - -
31/03:30pm 10.4 WNW 16 26 1014.3 - 0.0 - - - - - - -
31/03:19pm 10.4 WNW 17 27 1014.4 - 0.0 - - - - - - -
31/03:00pm 10.9 NW 17 25 1014.4 - 0.0 - - - - - - -
31/02:36pm 11.4 WNW 17 27 1014.4 - 0.0 - - - - - - -
31/02:30pm 11.5 WNW 18 26 1014.4 - 0.0 - - - - - - -
31/02:00pm 11.7 WNW 17 23 1014.6 - 0.0 - - - - - - -
31/01:30pm 11.5 WNW 18 27 1014.9 - 0.0 - - - - - - -
31/01:23pm 11.6 WNW 15 27 1014.9 - 0.0 - - - - - - -
31/01:00pm 11.8 WNW 15 22 1015.2 - 0.0 - - - - - - -
31/12:39pm 11.2 WNW 16 26 1015.6 - 0.0 - - - - - - -
31/12:30pm 11.1 WNW 13 18 1015.8 - 0.0 - - - - - - -
31/12:00pm 10.8 WNW 16 25 1016.4 - 0.0 - - - - - - -
31/11:30am 10.6 WNW 14 23 1016.8 - 0.0 - - - - - - -
31/11:00am 10.5 WNW 13 18 1016.9 - 0.0 - - - - - - -
31/10:30am 9.6 WNW 12 15 1016.9 - 0.0 - - - - - - -
31/10:00am 9.2 WNW 11 15 1016.7 - 0.0 - - - - - - -
31/09:30am 8.3 WNW 11 16 1016.7 - 0.0 - - - - - - -
31/09:00am 7.0 WNW 13 17 1016.3 - 1.6 - - - - - - -
31/08:30am 5.8 WNW 14 17 1015.9 - 1.6 - - - - - - -
31/08:00am 5.1 WNW 15 19 1015.6 - 1.6 - - - - - - -
31/07:30am 4.3 WNW 17 20 1015.1 - 1.6 - - - - - - -
31/07:00am 4.4 WNW 15 19 1014.6 - 1.6 - - - - - - -
31/06:30am 4.6 W 13 17 1014.2 - 1.6 - - - - - - -
31/06:00am 4.5 W 11 15 1013.9 - 1.6 - - - - - - -
31/05:30am 4.3 W 9 12 1013.6 - 1.6 - - - - - - -
31/05:00am 5.1 W 11 14 1013.1 - 1.6 - - - - - - -
31/04:30am 5.2 W 13 17 1012.7 - 1.6 - - - - - - -
31/04:00am 5.5 W 11 15 1012.2 - 1.6 - - - - - - -
31/03:30am 5.7 WNW 11 14 1011.6 - 1.6 - - - - - - -
31/03:00am 5.9 W 15 18 1011.2 - 1.6 - - - - - - -
31/02:30am 6.5 W 18 23 1010.7 - 1.6 - - - - - - -
31/02:00am 6.7 W 14 18 1010.2 - 1.6 - - - - - - -
31/01:30am 7.2 WNW 14 18 1009.7 - 1.6 - - - - - - -
31/01:00am 7.5 W 13 17 1008.8 - 1.6 - - - - - - -
31/12:30am 8.0 W 14 21 1008.0 - 1.6 - - - - - - -
31/12:00am 8.0 W 11 15 1007.3 - 1.6 - - - - - - -
 
Date/Time
EST
Temp

°C
Wind Pressure Rain
since 9am
mm
Weather Cloud Vis
km
Sea
Height
m
Swell
Dir
 
Speed
knots
Gust
knots
hPa Trend Height
m
Period
s
Dir
30/11:30pm 8.5 WNW 14 20 1006.8 - 1.6 - - - - - - -
30/11:00pm 9.0 W 19 30 1006.6 - 1.6 - - - - - - -
30/10:30pm 9.6 WNW 26 41 1005.1 - 1.6 - - - - - - -
30/10:00pm 9.8 WNW 26 39 1004.0 - 1.6 - - - - - - -
30/09:30pm 10.0 NW 26 36 1003.8 - 1.6 - - - - - - -
30/09:00pm 10.0 NW 28 40 1004.1 - 1.6 Rain - - - - - -
30/08:34pm 9.7 NW 31 41 1004.3 - 1.2 - - - - - - -
30/08:30pm 9.6 NW 32 41 1004.3 - 1.2 - - - - - - -
30/08:00pm 9.8 NW 26 37 1004.8 - 0.6 - - - - - - -
30/07:34pm 10.8 NW 25 35 1005.0 - 0.4 - - - - - - -
30/07:30pm 10.7 NW 24 32 1005.1 - 0.4 - - - - - - -
30/07:02pm 10.4 NNW 27 37 1005.3 - 0.2 - - - - - - -
30/07:00pm 10.3 NW 28 37 1005.3 - 0.2 - - - - - - -
30/06:55pm 10.4 NW 27 38 1005.4 - 0.2 - - - - - - -
30/06:51pm 10.4 NNW 26 38 1005.4 - 0.2 - - - - - - -
30/06:30pm 9.8 NW 19 29 1006.2 - 0.2 - - - - - - -
30/06:00pm 9.9 NNW 21 33 1006.3 - 0.2 Recent precip. - - - - - -
30/05:44pm 10.1 NW 23 36 1006.6 - 0.0 - - - - - - -
30/05:30pm 10.7 NNW 23 31 1006.6 - 0.0 - - - - - - -
30/05:00pm 10.8 NNW 23 33 1006.9 - 0.0 - - - - - - -
30/04:31pm 9.9 NW 24 34 1007.6 - 0.0 - - - - - - -
30/04:30pm 9.9 NW 25 34 1007.6 - 0.0 - - - - - - -
30/04:04pm 11.1 NW 24 34 1008.0 - 0.0 - - - - - - -
30/04:00pm 11.1 NW 25 34 1008.2 - 0.0 - - - - - - -
30/03:30pm 11.1 NW 26 37 1008.4 - 0.0 - - - - - - -
30/03:00pm 11.5 NW 27 37 1009.1 - 0.0 - - - - - - -
30/02:40pm 12.2 NW 26 36 1009.5 - 0.0 - - - - - - -
30/02:30pm 11.6 NW 27 36 1009.6 - 0.0 - - - - - - -
30/02:00pm 11.8 NW 28 39 1010.0 - 0.0 - - - - - - -
30/01:30pm 12.1 NW 29 41 1010.7 - 0.0 - - - - - - -
30/01:13pm 12.2 NW 24 36 1011.2 - 0.0 - - - - - - -
30/01:00pm 11.7 NW 24 31 1012.0 - 0.0 - - - - - - -
30/12:39pm 12.1 NW 23 35 1012.4 - 0.0 - - - - - - -
30/12:30pm 11.9 NNW 25 33 1012.5 - 0.0 - - - - - - -
30/12:00pm 11.6 NW 28 36 1013.5 - 0.0 - - - - - - -
30/11:53am 11.8 NW 26 36 1013.7 - 0.0 - - - - - - -
30/11:30am 11.6 NW 23 30 1014.4 - 0.0 - - - - - - -
30/11:02am 11.8 NW 25 35 1015.3 - 0.0 - - - - - - -
30/11:00am 11.8 NW 27 35 1015.3 - 0.0 - - - - - - -
30/10:31am 11.4 NW 21 32 1015.9 - 0.0 - - - - - - -
30/10:30am 11.4 NW 21 29 1015.9 - 0.0 - - - - - - -
30/10:00am 11.4 NW 21 32 1016.3 - 0.0 - - - - - - -
30/09:56am 11.2 NW 21 32 1016.3 - 0.0 - - - - - - -
30/09:30am 11.5 NW 22 31 1016.6 - 0.0 - - - - - - -
30/09:24am 11.8 NNW 21 31 1016.7 - 0.0 - - - - - - -
30/09:00am 11.4 NNW 19 25 1017.1 - - - - - - - - -
30/08:49am 11.0 NNW 18 29 1017.3 - - - - - - - - -
30/08:30am 11.0 NNW 17 23 1017.9 - - - - - - - - -
30/08:00am 10.6 NW 19 25 1018.0 - - - - - - - - -
30/07:30am 10.3 NW 17 23 1018.2 - - - - - - - - -
30/07:00am 10.6 NW 19 27 1018.4 - - - - - - - - -
30/06:30am 9.7 NW 19 25 1018.4 - - - - - - - - -
30/06:00am 9.8 NW 17 23 1018.6 - - - - - - - - -
30/05:30am 10.0 NW 19 24 1018.8 - - - - - - - - -
30/05:00am 9.8 NNW 13 17 1019.5 - - - - - - - - -
30/04:30am 9.9 NW 16 22 1020.1 - - - - - - - - -
30/04:00am 10.2 NW 14 19 1020.5 - - - - - - - - -
30/03:36am 10.1 NW 17 27 1020.6 - - - - - - - - -
30/03:30am 10.0 NW 17 26 1020.6 - - - - - - - - -
30/03:00am 10.1 NW 17 23 1021.2 - 0.2 Recent precip. - - - - - -
30/02:30am 10.2 NW 18 26 1021.4 - - - - - - - - -
30/02:00am 11.0 NW 21 27 1021.7 - - - - - - - - -
30/01:30am 10.8 NW 18 25 1021.9 - - - - - - - - -
30/01:00am 10.5 NNW 15 21 1022.3 - - - - - - - - -
30/12:30am 10.3 NNW 15 19 1022.6 - - - - - - - - -
30/12:00am 10.3 NW 15 19 1023.2 - - - - - - - - -
 
Date/Time
EST
Temp

°C
Wind Pressure Rain
since 9am
mm
Weather Cloud Vis
km
Sea
Height
m
Swell
Dir
 
Speed
knots
Gust
knots
hPa Trend Height
m
Period
s
Dir
29/11:30pm 10.5 NW 15 21 1023.6 - - - - - - - - -
29/11:08pm 10.6 NW 17 27 1024.1 - - - - - - - - -
29/11:00pm 10.6 NW 18 23 1024.1 - - - - - - - - -
29/10:30pm 10.7 NW 14 21 1024.5 - - - - - - - - -
29/10:00pm 10.6 NW 15 25 1024.6 - - - - - - - - -
29/09:56pm 10.6 NW 15 25 1024.7 - - - - - - - - -
29/09:30pm 10.6 WNW 11 16 1024.8 - - - - - - - - -
29/09:00pm 10.9 NW 15 19 1024.9 - - - - - - - - -
29/08:30pm 10.8 NW 15 21 1025.1 - - - - - - - - -
29/08:00pm 10.5 NW 12 15 1025.1 - - - - - - - - -
29/07:30pm 10.0 NW 11 14 1025.3 - - - - - - - - -
29/07:00pm 9.6 WNW 8 11 1025.3 - - - - - - - - -
29/06:30pm 9.9 NW 10 14 1025.4 - - - - - - - - -
29/06:00pm 10.1 NW 8 12 1025.3 - - - - - - - - -

Other Formats:

Comma delimited format used in spreadsheet applications
http://www.bom.gov.au/fwo/IDT60701/IDT60701.94983.axf

JavaScript Object Notation format (JSON) in row-major order
http://www.bom.gov.au/fwo/IDT60701/IDT60701.94983.json